createdAt,value
2024-05-09T00:00:39.886Z,14.47
2024-05-09T00:03:09.254Z,14.41
2024-05-09T00:05:37.587Z,14.34
2024-05-09T00:08:05.007Z,14.25
2024-05-09T00:10:36.686Z,14.19
2024-05-09T00:13:07.163Z,14.12
2024-05-09T00:15:35.043Z,14.05
2024-05-09T00:18:03.266Z,13.96
2024-05-09T00:20:37.643Z,13.86
2024-05-09T00:23:08.115Z,13.79
2024-05-09T00:25:35.547Z,13.73
2024-05-09T00:28:02.995Z,13.70
2024-05-09T00:30:34.602Z,13.67
2024-05-09T00:33:05.522Z,13.61
2024-05-09T00:35:33.728Z,13.53
2024-05-09T00:38:00.984Z,13.44
2024-05-09T00:40:39.068Z,13.36
2024-05-09T00:43:08.954Z,13.28
2024-05-09T00:45:36.021Z,13.21
2024-05-09T00:48:07.532Z,13.14
2024-05-09T00:50:37.929Z,13.07
2024-05-09T00:53:11.789Z,13.00
2024-05-09T00:55:40.233Z,12.94
2024-05-09T00:58:10.814Z,12.87
2024-05-09T01:00:40.231Z,12.80
2024-05-09T01:03:13.354Z,12.75
2024-05-09T01:05:42.528Z,12.72
2024-05-09T01:08:10.987Z,12.68
2024-05-09T01:10:38.583Z,12.67
2024-05-09T01:13:06.569Z,12.64
2024-05-09T01:15:34.574Z,12.59
2024-05-09T01:18:06.746Z,12.54
2024-05-09T01:20:41.065Z,12.49
2024-05-09T01:23:11.445Z,12.47
2024-05-09T01:25:38.688Z,12.43
2024-05-09T01:28:06.156Z,12.38
2024-05-09T01:30:35.907Z,12.34
2024-05-09T01:33:07.233Z,12.29
2024-05-09T01:35:36.192Z,12.23
2024-05-09T01:38:03.273Z,12.18
2024-05-09T01:40:37.253Z,12.14
2024-05-09T01:43:10.968Z,12.10
2024-05-09T01:45:41.974Z,12.06
2024-05-09T01:48:09.652Z,12.00
2024-05-09T01:50:40.711Z,11.95
2024-05-09T01:53:10.735Z,11.90
2024-05-09T01:55:37.672Z,11.86
2024-05-09T01:58:04.771Z,11.81
2024-05-09T02:00:38.788Z,11.80
2024-05-09T02:03:11.528Z,11.77
2024-05-09T02:05:41.404Z,11.74
2024-05-09T02:08:14.964Z,11.71
2024-05-09T02:10:42.282Z,11.68
2024-05-09T02:13:09.485Z,11.64
2024-05-09T02:15:36.390Z,11.62
2024-05-09T02:18:03.528Z,11.60
2024-05-09T02:20:35.967Z,11.60
2024-05-09T02:23:06.170Z,11.64
2024-05-09T02:25:33.558Z,11.65
2024-05-09T02:28:00.347Z,11.64
2024-05-09T02:30:37.742Z,11.65
2024-05-09T02:33:08.698Z,11.67
2024-05-09T02:35:36.496Z,11.66
2024-05-09T02:38:03.710Z,11.68
2024-05-09T02:40:36.776Z,11.66
2024-05-09T02:43:06.639Z,11.68
2024-05-09T02:45:33.702Z,11.69
2024-05-09T02:48:01.693Z,11.71
2024-05-09T02:50:34.749Z,11.73
2024-05-09T02:53:05.952Z,11.71
2024-05-09T02:55:33.173Z,11.72
2024-05-09T02:58:00.185Z,11.73
2024-05-09T03:00:36.302Z,11.73
2024-05-09T03:03:11.862Z,11.71
2024-05-09T03:05:42.093Z,11.69
2024-05-09T03:08:09.469Z,11.67
2024-05-09T03:10:38.518Z,11.64
2024-05-09T03:13:12.900Z,11.63
2024-05-09T03:15:41.039Z,11.60
2024-05-09T03:18:07.962Z,11.59
2024-05-09T03:20:36.228Z,11.55
2024-05-09T03:23:05.479Z,11.50
2024-05-09T03:25:32.842Z,11.47
2024-05-09T03:27:59.845Z,11.40
2024-05-09T03:30:38.659Z,11.36
2024-05-09T03:33:18.616Z,11.31
2024-05-09T03:35:47.388Z,11.27
2024-05-09T03:38:14.498Z,11.22
2024-05-09T03:40:49.321Z,11.17
2024-05-09T03:43:17.353Z,11.14
2024-05-09T03:45:44.459Z,11.12
2024-05-09T03:48:11.857Z,11.08
2024-05-09T03:50:39.229Z,11.05
2024-05-09T03:53:09.580Z,11.02
2024-05-09T03:55:36.585Z,11.00
2024-05-09T03:58:03.492Z,10.96
2024-05-09T04:00:36.909Z,10.92
2024-05-09T04:03:11.088Z,10.87
2024-05-09T04:05:44.577Z,10.83
2024-05-09T04:08:13.215Z,10.78
2024-05-09T04:10:41.139Z,10.72
2024-05-09T04:13:08.189Z,10.69
2024-05-09T04:15:34.996Z,10.66
2024-05-09T04:18:02.490Z,10.64
2024-05-09T04:20:37.412Z,10.62
2024-05-09T04:23:08.814Z,10.59
2024-05-09T04:25:36.311Z,10.54
2024-05-09T04:28:03.282Z,10.51
2024-05-09T04:30:36.794Z,10.49
2024-05-09T04:33:08.846Z,10.45
2024-05-09T04:35:38.572Z,10.43
2024-05-09T04:38:06.155Z,10.39
2024-05-09T04:40:36.041Z,10.38
2024-05-09T04:43:13.660Z,10.36
2024-05-09T04:45:40.911Z,10.36
2024-05-09T04:48:08.302Z,10.35
2024-05-09T04:50:38.270Z,10.37
2024-05-09T04:53:09.474Z,10.37
2024-05-09T04:55:37.729Z,10.39
2024-05-09T04:58:05.785Z,10.42
2024-05-09T05:00:37.118Z,10.43
2024-05-09T05:03:08.137Z,10.46
2024-05-09T05:05:43.550Z,10.50
2024-05-09T05:08:15.291Z,10.56
2024-05-09T05:10:43.699Z,10.61
2024-05-09T05:13:25.028Z,10.65
2024-05-09T05:15:56.576Z,10.70
2024-05-09T05:18:26.066Z,10.74
2024-05-09T05:20:53.826Z,10.83
2024-05-09T05:23:22.555Z,10.89
2024-05-09T05:25:51.415Z,10.97
2024-05-09T05:28:19.187Z,11.03
2024-05-09T05:30:46.534Z,11.12
2024-05-09T05:33:15.420Z,11.19
2024-05-09T05:35:42.709Z,11.29
2024-05-09T05:38:11.032Z,11.33
2024-05-09T05:40:39.136Z,11.37
2024-05-09T05:43:11.018Z,11.41
2024-05-09T05:45:39.218Z,11.45
2024-05-09T05:48:07.848Z,11.47
2024-05-09T05:50:37.493Z,11.53
2024-05-09T05:53:07.380Z,11.60
2024-05-09T05:55:35.237Z,11.68
2024-05-09T05:58:02.922Z,11.75
2024-05-09T06:00:37.358Z,11.78
2024-05-09T06:03:06.753Z,11.82
2024-05-09T06:05:33.890Z,11.91
2024-05-09T06:08:00.988Z,12.02
2024-05-09T06:10:37.183Z,12.16
2024-05-09T06:13:07.073Z,12.28
2024-05-09T06:15:33.975Z,12.38
2024-05-09T06:18:01.183Z,12.50
2024-05-09T06:20:35.486Z,12.57
2024-05-09T06:23:08.588Z,12.68
2024-05-09T06:25:36.278Z,12.82
2024-05-09T06:28:03.783Z,12.94
2024-05-09T06:30:38.556Z,13.07
2024-05-09T06:33:10.091Z,13.21
2024-05-09T06:35:38.362Z,13.36
2024-05-09T06:38:06.272Z,13.51
2024-05-09T06:40:37.885Z,13.66
2024-05-09T06:43:18.703Z,13.78
2024-05-09T06:45:48.676Z,13.88
2024-05-09T06:48:18.408Z,13.96
2024-05-09T06:50:45.745Z,14.02
2024-05-09T06:53:17.011Z,14.08
2024-05-09T06:55:43.944Z,14.15
2024-05-09T06:58:10.792Z,14.22
2024-05-09T07:00:40.505Z,14.30
2024-05-09T07:03:11.426Z,14.40
2024-05-09T07:05:39.690Z,14.50
2024-05-09T07:08:07.122Z,14.62
2024-05-09T07:10:36.136Z,14.78
2024-05-09T07:13:12.130Z,14.91
2024-05-09T07:15:40.241Z,15.07
2024-05-09T07:18:18.488Z,15.22
2024-05-09T07:20:47.876Z,15.37
2024-05-09T07:23:16.404Z,15.50
2024-05-09T07:25:47.151Z,15.55
2024-05-09T07:28:19.481Z,15.60
2024-05-09T07:30:47.581Z,15.62
2024-05-09T07:33:20.039Z,15.72
2024-05-09T07:35:48.438Z,15.81
2024-05-09T07:38:18.486Z,15.86
2024-05-09T07:40:47.088Z,15.85
2024-05-09T07:43:17.618Z,15.94
2024-05-09T07:45:52.496Z,16.05
2024-05-09T07:52:38.267Z,16.25
2024-05-09T07:53:47.157Z,16.35
2024-05-09T07:56:19.696Z,16.42
2024-05-09T07:58:51.755Z,16.49
2024-05-09T08:01:20.885Z,16.49
2024-05-09T08:03:50.897Z,16.52
2024-05-09T08:06:19.163Z,16.54
2024-05-09T08:08:48.290Z,16.56
2024-05-09T08:11:24.185Z,16.63
2024-05-09T08:13:59.600Z,16.72
2024-05-09T08:16:28.090Z,16.76
2024-05-09T08:18:56.015Z,16.83
2024-05-09T08:21:24.596Z,16.88
2024-05-09T08:23:53.566Z,16.95
2024-05-09T08:26:22.882Z,17.03
2024-05-09T08:28:51.845Z,17.10
2024-05-09T08:31:21.656Z,17.17
2024-05-09T08:33:52.794Z,17.20
2024-05-09T08:36:21.441Z,17.23
2024-05-09T08:38:49.346Z,17.31
2024-05-09T08:41:18.689Z,17.31
2024-05-09T08:43:47.910Z,17.30
2024-05-09T08:46:19.398Z,17.28
2024-05-09T08:48:50.682Z,17.29
2024-05-09T08:51:19.398Z,17.30
2024-05-09T08:53:47.625Z,17.32
2024-05-09T08:56:17.285Z,17.33
2024-05-09T08:58:46.599Z,17.39
2024-05-09T09:01:15.407Z,17.42
2024-05-09T09:03:46.101Z,17.42
2024-05-09T09:06:18.732Z,17.48
2024-05-09T09:08:47.274Z,17.57
2024-05-09T09:11:16.413Z,17.62
2024-05-09T09:13:44.838Z,17.67
2024-05-09T09:16:13.501Z,17.70
2024-05-09T09:18:47.085Z,17.73
2024-05-09T09:21:15.693Z,17.73
2024-05-09T09:23:44.818Z,17.75
2024-05-09T09:26:16.903Z,17.81
2024-05-09T09:28:48.126Z,17.79
2024-05-09T09:31:20.532Z,17.80
2024-05-09T09:33:48.389Z,17.86
2024-05-09T09:36:16.439Z,17.92
2024-05-09T09:38:47.390Z,17.92
2024-05-09T09:41:20.574Z,18.00
2024-05-09T09:43:49.208Z,18.02
2024-05-09T09:46:19.142Z,18.04
2024-05-09T09:48:49.407Z,18.06
2024-05-09T09:51:17.886Z,18.14
2024-05-09T09:53:46.790Z,18.26
2024-05-09T09:56:18.184Z,18.30
2024-05-09T09:58:47.164Z,18.30
2024-05-09T10:01:14.994Z,18.30
2024-05-09T10:03:43.941Z,18.30
2024-05-09T10:06:13.596Z,18.39
2024-05-09T10:08:43.236Z,18.45
2024-05-09T10:11:11.924Z,18.52
2024-05-09T10:13:42.935Z,18.55
2024-05-09T10:16:12.322Z,18.56
2024-05-09T10:18:42.995Z,18.58
2024-05-09T10:21:21.059Z,18.58
2024-05-09T10:24:08.392Z,18.64
2024-05-09T10:26:38.202Z,18.68
2024-05-09T10:29:15.054Z,18.81
2024-05-09T10:31:45.622Z,18.93
2024-05-09T10:34:22.672Z,19.02
2024-05-09T10:36:55.366Z,19.05
2024-05-09T10:39:24.235Z,19.05
2024-05-09T10:41:52.724Z,19.09
2024-05-09T10:44:23.598Z,19.04
2024-05-09T10:46:52.661Z,19.02
2024-05-09T10:49:21.717Z,19.05
2024-05-09T10:51:51.739Z,19.10
2024-05-09T10:54:20.046Z,19.16
2024-05-09T10:56:56.403Z,19.20
2024-05-09T10:59:24.779Z,19.21
2024-05-09T11:01:53.521Z,19.22
2024-05-09T11:04:22.110Z,19.25
2024-05-09T11:06:50.535Z,19.30
2024-05-09T11:09:20.099Z,19.35
2024-05-09T11:11:48.597Z,19.39
2024-05-09T11:14:18.027Z,19.40
2024-05-09T11:16:46.076Z,19.38
2024-05-09T11:19:15.123Z,19.44
2024-05-09T11:21:43.436Z,19.46
2024-05-09T11:24:11.952Z,19.48
2024-05-09T11:26:40.206Z,19.50
2024-05-09T11:29:08.449Z,19.55
2024-05-09T11:31:48.645Z,19.58
2024-05-09T11:34:17.231Z,19.57
2024-05-09T11:36:45.439Z,19.58
2024-05-09T11:39:15.545Z,19.65
2024-05-09T11:41:43.108Z,19.70
2024-05-09T11:44:11.660Z,19.70
2024-05-09T11:46:40.000Z,19.66
2024-05-09T11:49:10.115Z,19.66
2024-05-09T11:51:38.888Z,19.74
2024-05-09T11:54:07.338Z,19.77
2024-05-09T11:56:35.271Z,19.82
2024-05-09T11:59:03.555Z,19.90
2024-05-09T12:01:31.558Z,19.95
2024-05-09T12:03:59.870Z,19.97
2024-05-09T12:06:28.040Z,19.99
2024-05-09T12:08:57.212Z,20.02
2024-05-09T12:11:25.085Z,19.93
2024-05-09T12:13:53.634Z,19.99
2024-05-09T12:16:22.164Z,20.08
2024-05-09T12:18:50.361Z,20.14
2024-05-09T12:21:18.584Z,20.15
2024-05-09T12:23:46.775Z,20.17
2024-05-09T12:26:16.646Z,20.06
2024-05-09T12:28:45.267Z,20.00
2024-05-09T12:31:13.386Z,20.08
2024-05-09T12:33:41.108Z,20.19
2024-05-09T12:36:09.037Z,20.17
2024-05-09T12:38:37.355Z,20.13
2024-05-09T12:41:06.231Z,20.12
2024-05-09T12:43:34.433Z,20.14
2024-05-09T12:46:04.424Z,20.18
2024-05-09T12:48:33.074Z,20.18
2024-05-09T12:51:02.339Z,20.16
2024-05-09T12:53:30.605Z,20.20
2024-05-09T12:56:02.261Z,20.21
2024-05-09T12:58:32.893Z,20.32
2024-05-09T13:01:01.958Z,20.33
2024-05-09T13:03:31.260Z,20.39
2024-05-09T13:05:59.976Z,20.41
2024-05-09T13:08:28.599Z,20.45
2024-05-09T13:10:57.806Z,20.51
2024-05-09T13:13:28.086Z,20.57
2024-05-09T13:15:57.155Z,20.60
2024-05-09T13:18:26.232Z,20.61
2024-05-09T13:20:55.234Z,20.65
2024-05-09T13:23:26.614Z,20.67
2024-05-09T13:25:55.776Z,20.74
2024-05-09T13:28:24.556Z,20.75
2024-05-09T13:30:53.736Z,20.73
2024-05-09T13:33:24.389Z,20.81
2024-05-09T13:35:53.870Z,20.88
2024-05-09T13:38:23.309Z,20.84
2024-05-09T13:40:51.904Z,20.78
2024-05-09T13:43:24.592Z,20.75
2024-05-09T13:45:56.332Z,20.73
2024-05-09T13:48:28.241Z,20.73
2024-05-09T13:50:58.174Z,20.74
2024-05-09T13:53:30.516Z,20.74
2024-05-09T13:56:00.048Z,20.76
2024-05-09T13:58:29.196Z,20.86
2024-05-09T14:00:59.446Z,20.92
2024-05-09T14:03:30.579Z,21.02
2024-05-09T14:05:59.428Z,21.05
2024-05-09T14:08:28.951Z,20.99
2024-05-09T14:10:58.457Z,20.92
2024-05-09T14:13:28.745Z,20.95
2024-05-09T14:15:59.278Z,20.97
2024-05-09T14:18:29.236Z,21.03
2024-05-09T14:20:58.945Z,21.07
2024-05-09T14:23:27.398Z,21.07
2024-05-09T14:25:56.497Z,21.05
2024-05-09T14:28:27.566Z,21.09
2024-05-09T14:30:57.576Z,21.13
2024-05-09T14:33:27.847Z,21.13
2024-05-09T14:35:56.303Z,21.19
2024-05-09T14:38:26.092Z,21.14
2024-05-09T14:40:56.006Z,21.10
2024-05-09T14:43:25.208Z,21.10
2024-05-09T14:45:54.595Z,21.09
2024-05-09T14:48:24.150Z,21.11
2024-05-09T14:50:52.624Z,21.12
2024-05-09T14:53:20.849Z,21.09
2024-05-09T14:55:50.712Z,21.15
2024-05-09T14:58:21.573Z,21.22
2024-05-09T15:00:51.366Z,21.25
2024-05-09T15:03:22.350Z,21.29
2024-05-09T15:05:51.879Z,21.31
2024-05-09T15:08:21.147Z,21.35
2024-05-09T15:10:53.305Z,21.36
2024-05-09T15:13:23.175Z,21.33
2024-05-09T15:15:50.940Z,21.28
2024-05-09T15:18:21.341Z,21.27
2024-05-09T15:20:51.656Z,21.25
2024-05-09T15:23:20.613Z,21.27
2024-05-09T15:25:48.596Z,21.28
2024-05-09T15:28:17.054Z,21.33
2024-05-09T15:30:46.855Z,21.35
2024-05-09T15:33:15.354Z,21.37
2024-05-09T15:35:44.084Z,21.38
2024-05-09T15:38:12.568Z,21.38
2024-05-09T15:40:41.297Z,21.39
2024-05-09T15:43:11.561Z,21.38
2024-05-09T15:45:41.360Z,21.36
2024-05-09T15:48:12.400Z,21.38
2024-05-09T15:50:42.484Z,21.41
2024-05-09T15:53:13.314Z,21.37
2024-05-09T15:55:43.423Z,21.32
2024-05-09T15:58:11.604Z,21.32
2024-05-09T16:00:42.334Z,21.28
2024-05-09T16:03:13.965Z,21.31
2024-05-09T16:05:47.797Z,21.31
2024-05-09T16:08:17.211Z,21.32
2024-05-09T16:10:46.831Z,21.33
2024-05-09T16:13:17.864Z,21.32
2024-05-09T16:15:47.153Z,21.31
2024-05-09T16:18:16.283Z,21.29
2024-05-09T16:20:46.466Z,21.29
2024-05-09T16:23:17.127Z,21.27
2024-05-09T16:25:48.725Z,21.26
2024-05-09T16:28:17.208Z,21.30
2024-05-09T16:30:45.960Z,21.33
2024-05-09T16:33:14.763Z,21.36
2024-05-09T16:35:43.181Z,21.37
2024-05-09T16:38:13.796Z,21.37
2024-05-09T16:40:43.530Z,21.34
2024-05-09T16:43:13.524Z,21.29
2024-05-09T16:45:45.183Z,21.31
2024-05-09T16:48:14.907Z,21.31
2024-05-09T16:50:43.403Z,21.27
2024-05-09T16:53:11.186Z,21.23
2024-05-09T16:55:39.713Z,21.22
2024-05-09T16:58:13.138Z,21.19
2024-05-09T17:00:43.732Z,21.13
2024-05-09T17:03:16.172Z,21.10
2024-05-09T17:05:47.472Z,21.07
2024-05-09T17:08:20.451Z,21.07
2024-05-09T17:10:49.912Z,21.08
2024-05-09T17:13:19.700Z,21.11
2024-05-09T17:15:49.431Z,21.11
2024-05-09T17:18:21.248Z,21.09
2024-05-09T17:20:58.527Z,21.13
2024-05-09T17:23:28.164Z,21.14
2024-05-09T17:25:57.296Z,21.16
2024-05-09T17:28:27.827Z,21.16
2024-05-09T17:30:56.872Z,21.18
2024-05-09T17:33:25.334Z,21.20
2024-05-09T17:35:54.054Z,21.22
2024-05-09T17:38:26.752Z,21.23
2024-05-09T17:40:59.790Z,21.24
2024-05-09T17:43:31.025Z,21.26
2024-05-09T17:46:01.475Z,21.25
2024-05-09T17:48:30.796Z,21.22
2024-05-09T17:50:59.329Z,21.24
2024-05-09T17:53:27.859Z,21.24
2024-05-09T17:55:57.294Z,21.25
2024-05-09T17:58:25.854Z,21.23
2024-05-09T18:00:56.155Z,21.20
2024-05-09T18:03:26.181Z,21.21
2024-05-09T18:05:56.940Z,21.25
2024-05-09T18:08:28.073Z,21.28
2024-05-09T18:11:04.565Z,21.42
2024-05-09T18:16:02.460Z,21.42
2024-05-09T18:18:32.954Z,21.29
2024-05-09T18:21:02.733Z,21.09
2024-05-09T18:23:34.374Z,20.98
2024-05-09T18:26:11.447Z,20.89
2024-05-09T18:28:44.445Z,20.78
2024-05-09T18:31:14.667Z,20.71
2024-05-09T18:33:43.694Z,20.65
2024-05-09T18:36:14.145Z,20.60
2024-05-09T18:38:47.733Z,20.54
2024-05-09T18:41:23.718Z,20.45
2024-05-09T18:43:56.280Z,20.41
2024-05-09T18:46:25.968Z,20.37
2024-05-09T18:48:55.535Z,20.33
2024-05-09T18:51:25.831Z,20.29
2024-05-09T18:53:59.279Z,20.25
2024-05-09T18:56:31.519Z,20.21
2024-05-09T18:59:01.887Z,20.16
2024-05-09T19:01:31.893Z,20.12
2024-05-09T19:04:03.141Z,20.08
2024-05-09T19:06:32.430Z,20.05
2024-05-09T19:09:01.707Z,20.02
2024-05-09T19:11:33.057Z,19.98
2024-05-09T19:14:05.366Z,19.93
2024-05-09T19:16:34.572Z,19.88
2024-05-09T19:19:06.802Z,19.81
2024-05-09T19:21:33.968Z,19.75
2024-05-09T19:24:01.712Z,19.71
2024-05-09T19:26:29.693Z,19.65
2024-05-09T19:28:57.280Z,19.57
2024-05-09T19:36:34.853Z,19.41
2024-05-09T19:39:02.635Z,19.34
2024-05-09T19:41:30.539Z,19.26
2024-05-09T19:43:58.380Z,19.19
2024-05-09T19:46:26.181Z,19.13
2024-05-09T19:48:54.526Z,19.08
2024-05-09T19:51:22.774Z,19.03
2024-05-09T19:53:51.412Z,18.97
2024-05-09T19:56:19.631Z,18.92
2024-05-09T19:58:47.649Z,18.84
2024-05-09T20:01:15.527Z,18.78
2024-05-09T20:03:43.426Z,18.71
2024-05-09T20:06:11.791Z,18.64
2024-05-09T20:08:39.952Z,18.59
2024-05-09T20:11:08.017Z,18.54
2024-05-09T20:13:37.245Z,18.48
2024-05-09T20:16:05.458Z,18.43
2024-05-09T20:18:33.384Z,18.35
2024-05-09T20:21:02.838Z,18.27
2024-05-09T20:23:30.612Z,18.15
2024-05-09T20:25:58.293Z,18.04
2024-05-09T20:28:26.270Z,17.90
2024-05-09T20:30:54.265Z,17.79
2024-05-09T20:33:22.326Z,17.68
2024-05-09T20:35:51.133Z,17.56
2024-05-09T20:38:19.470Z,17.43
2024-05-09T20:40:48.057Z,17.32
2024-05-09T20:43:16.781Z,17.21
2024-05-09T20:45:45.197Z,17.11
2024-05-09T20:48:13.797Z,16.98
2024-05-09T20:50:42.792Z,16.86
2024-05-09T20:53:14.251Z,16.77
2024-05-09T20:55:44.227Z,16.70
2024-05-09T20:58:12.824Z,16.59
2024-05-09T21:00:43.807Z,16.48
2024-05-09T21:03:16.124Z,16.38
2024-05-09T21:05:51.622Z,16.30
2024-05-09T21:08:19.479Z,16.24
2024-05-09T21:10:46.966Z,16.15
2024-05-09T21:13:15.055Z,16.07
2024-05-09T21:15:42.663Z,16.02
2024-05-09T21:18:10.642Z,15.92
2024-05-09T21:20:37.844Z,15.86
2024-05-09T21:23:05.795Z,15.78
2024-05-09T21:25:33.190Z,15.72
2024-05-09T21:28:01.589Z,15.65
2024-05-09T21:30:38.548Z,15.58
2024-05-09T21:33:11.251Z,15.51
2024-05-09T21:35:41.090Z,15.45
2024-05-09T21:38:08.561Z,15.37
2024-05-09T21:40:36.784Z,15.33
2024-05-09T21:43:05.529Z,15.26
2024-05-09T21:45:33.187Z,15.21
2024-05-09T21:48:00.786Z,15.14
2024-05-09T21:50:35.915Z,15.10
2024-05-09T21:53:07.537Z,15.06
2024-05-09T21:55:35.210Z,15.00
2024-05-09T21:58:03.400Z,14.94
2024-05-09T22:00:36.871Z,14.89
2024-05-09T22:03:10.610Z,14.84
2024-05-09T22:05:42.483Z,14.80
2024-05-09T22:08:09.599Z,14.76
2024-05-09T22:10:37.575Z,14.72
2024-05-09T22:13:06.662Z,14.67
2024-05-09T22:15:39.333Z,14.62
2024-05-09T22:18:09.021Z,14.57
2024-05-09T22:20:39.425Z,14.52
2024-05-09T22:23:08.714Z,14.47
2024-05-09T22:25:36.921Z,14.43
2024-05-09T22:28:05.174Z,14.39
2024-05-09T22:30:37.112Z,14.34
2024-05-09T22:33:07.792Z,14.29
2024-05-09T22:35:34.966Z,14.23
2024-05-09T22:38:03.076Z,14.20
2024-05-09T22:40:38.942Z,14.15
2024-05-09T22:43:13.853Z,14.12
2024-05-09T22:45:41.249Z,14.10
2024-05-09T22:48:09.007Z,14.05
2024-05-09T22:50:36.201Z,14.02
2024-05-09T22:53:03.032Z,13.99
2024-05-09T22:55:30.162Z,13.93
2024-05-09T22:57:57.170Z,13.88
2024-05-09T23:02:53.919Z,13.81
2024-05-09T23:05:20.910Z,13.76
2024-05-09T23:07:47.745Z,13.72
2024-05-09T23:10:21.264Z,13.69
2024-05-09T23:12:54.888Z,13.64
2024-05-09T23:15:21.903Z,13.60
2024-05-09T23:17:48.871Z,13.59
2024-05-09T23:20:21.716Z,13.54
2024-05-09T23:22:55.922Z,13.51
2024-05-09T23:25:22.806Z,13.47
2024-05-09T23:27:49.750Z,13.44
2024-05-09T23:30:28.314Z,13.40
2024-05-09T23:33:01.361Z,13.38
2024-05-09T23:35:28.363Z,13.34
2024-05-09T23:37:55.147Z,13.32
2024-05-09T23:40:23.474Z,13.30
2024-05-09T23:42:50.874Z,13.26
2024-05-09T23:45:17.751Z,13.24
2024-05-09T23:47:44.834Z,13.21
2024-05-09T23:50:16.951Z,13.17
2024-05-09T23:52:50.594Z,13.16
2024-05-09T23:55:17.668Z,13.15
2024-05-09T23:57:44.739Z,13.13
